createdAt,value
2018-05-31T00:00:33.418Z,23.60
2018-05-31T00:03:01.186Z,23.60
2018-05-31T00:05:28.868Z,23.60
2018-05-31T00:07:56.593Z,23.60
2018-05-31T00:10:24.273Z,23.50
2018-05-31T00:12:52.064Z,23.50
2018-05-31T00:15:19.777Z,23.50
2018-05-31T00:17:47.498Z,23.40
2018-05-31T00:20:15.274Z,23.40
2018-05-31T00:22:43.042Z,23.40
2018-05-31T00:25:10.727Z,23.40
2018-05-31T00:27:38.444Z,23.30
2018-05-31T00:30:06.140Z,23.30
2018-05-31T00:32:33.900Z,23.30
2018-05-31T00:35:01.607Z,23.30
2018-05-31T00:37:30.157Z,23.10
2018-05-31T00:39:57.872Z,23.10
2018-05-31T00:42:26.410Z,23.00
2018-05-31T00:44:54.184Z,23.00
2018-05-31T00:47:21.909Z,23.00
2018-05-31T00:49:49.608Z,23.00
2018-05-31T00:52:17.416Z,23.00
2018-05-31T00:54:45.150Z,22.90
2018-05-31T00:57:12.929Z,22.90
2018-05-31T00:59:40.644Z,22.90
2018-05-31T01:02:09.105Z,22.80
2018-05-31T01:04:36.844Z,22.80
2018-05-31T01:07:04.629Z,22.80
2018-05-31T01:09:32.323Z,22.70
2018-05-31T01:12:00.912Z,22.60
2018-05-31T01:14:28.595Z,22.60
2018-05-31T01:16:57.144Z,22.60
2018-05-31T01:19:24.892Z,22.60
2018-05-31T01:21:52.602Z,22.60
2018-05-31T01:24:20.337Z,22.50
2018-05-31T01:26:48.031Z,22.50
2018-05-31T01:29:15.762Z,22.50
2018-05-31T01:31:43.461Z,22.40
2018-05-31T01:34:11.174Z,22.40
2018-05-31T01:36:38.981Z,22.40
2018-05-31T01:39:07.462Z,22.30
2018-05-31T01:41:35.177Z,22.30
2018-05-31T01:44:03.713Z,22.30
2018-05-31T01:46:31.424Z,22.20
2018-05-31T01:48:59.965Z,22.20
2018-05-31T01:51:27.671Z,22.20
2018-05-31T01:53:55.408Z,22.20
2018-05-31T01:56:23.201Z,22.20
2018-05-31T01:58:50.959Z,22.20
2018-05-31T02:01:18.715Z,22.20
2018-05-31T02:03:46.430Z,22.20
2018-05-31T02:06:14.259Z,22.20
2018-05-31T02:08:42.017Z,22.20
2018-05-31T02:11:09.713Z,22.10
2018-05-31T02:13:37.426Z,22.10
2018-05-31T02:16:05.117Z,22.20
2018-05-31T02:18:32.888Z,21.70
2018-05-31T02:21:00.579Z,21.20
2018-05-31T02:23:28.324Z,21.10
2018-05-31T02:25:56.096Z,21.10
2018-05-31T02:28:23.874Z,21.10
2018-05-31T02:30:51.571Z,21.10
2018-05-31T02:33:20.045Z,21.20
2018-05-31T02:35:47.788Z,21.20
2018-05-31T02:38:15.552Z,21.20
2018-05-31T02:40:43.319Z,21.20
2018-05-31T02:43:11.094Z,21.30
2018-05-31T02:45:38.786Z,21.40
2018-05-31T02:48:07.333Z,21.50
2018-05-31T02:50:35.115Z,21.40
2018-05-31T02:53:02.873Z,21.50
2018-05-31T02:55:30.658Z,21.60
2018-05-31T02:57:58.425Z,21.60
2018-05-31T03:00:26.117Z,21.70
2018-05-31T03:02:53.827Z,21.80
2018-05-31T03:05:21.516Z,21.80
2018-05-31T03:07:49.287Z,21.90
2018-05-31T03:10:17.058Z,21.90
2018-05-31T03:12:44.851Z,21.90
2018-05-31T03:15:12.555Z,22.00
2018-05-31T03:17:40.261Z,22.00
2018-05-31T03:20:08.033Z,22.00
2018-05-31T03:22:35.796Z,22.00
2018-05-31T03:25:03.512Z,22.00
2018-05-31T03:27:32.001Z,22.00
2018-05-31T03:30:00.489Z,22.00
2018-05-31T03:32:28.957Z,22.00
2018-05-31T03:34:57.525Z,22.00
2018-05-31T03:37:28.077Z,22.00
2018-05-31T03:39:55.782Z,22.10
2018-05-31T03:42:23.477Z,22.10
2018-05-31T03:44:51.177Z,22.10
2018-05-31T03:47:18.963Z,22.00
2018-05-31T03:49:46.688Z,22.10
2018-05-31T03:52:14.406Z,22.10
2018-05-31T03:54:42.921Z,22.10
2018-05-31T03:57:10.616Z,22.10
2018-05-31T03:59:38.323Z,22.20
2018-05-31T04:02:06.783Z,22.10
2018-05-31T04:04:34.495Z,22.10
2018-05-31T04:07:02.300Z,22.20
2018-05-31T04:09:30.077Z,22.10
2018-05-31T04:11:57.772Z,22.20
2018-05-31T04:14:26.260Z,21.90
2018-05-31T04:16:54.748Z,21.90
2018-05-31T04:19:23.297Z,21.80
2018-05-31T04:21:50.989Z,21.70
2018-05-31T04:24:18.699Z,21.60
2018-05-31T04:26:46.503Z,21.50
2018-05-31T04:29:14.212Z,21.40
2018-05-31T04:31:42.765Z,21.30
2018-05-31T04:34:10.477Z,21.30
2018-05-31T04:36:39.000Z,21.40
2018-05-31T04:39:06.712Z,21.40
2018-05-31T04:41:34.414Z,21.50
2018-05-31T04:44:02.136Z,21.60
2018-05-31T04:46:29.897Z,21.80
2018-05-31T04:48:57.643Z,21.90
2018-05-31T04:51:25.431Z,22.10
2018-05-31T04:53:53.128Z,22.30
2018-05-31T04:56:21.585Z,22.70
2018-05-31T04:58:49.368Z,22.70
2018-05-31T05:01:17.105Z,23.00
2018-05-31T05:03:44.814Z,23.20
2018-05-31T05:06:13.367Z,23.70
2018-05-31T05:08:41.089Z,23.70
2018-05-31T05:11:08.791Z,23.90
2018-05-31T05:13:36.562Z,24.20
2018-05-31T05:16:04.263Z,24.50
2018-05-31T05:18:31.968Z,24.80
2018-05-31T05:21:00.788Z,24.90
2018-05-31T05:23:28.558Z,25.00
2018-05-31T05:25:56.323Z,25.10
2018-05-31T05:28:24.042Z,25.00
2018-05-31T05:30:52.552Z,25.00
2018-05-31T05:33:20.276Z,25.00
2018-05-31T05:35:48.041Z,24.90
2018-05-31T05:38:15.727Z,25.00
2018-05-31T05:40:44.805Z,25.30
2018-05-31T05:43:15.247Z,25.30
2018-05-31T05:45:43.044Z,25.50
2018-05-31T05:48:10.763Z,25.80
2018-05-31T05:50:38.486Z,26.00
2018-05-31T05:53:06.969Z,26.50
2018-05-31T05:55:35.454Z,26.80
2018-05-31T05:58:03.144Z,26.70
2018-05-31T06:00:30.852Z,26.90
2018-05-31T06:02:58.599Z,27.10
2018-05-31T06:05:26.327Z,27.20
2018-05-31T06:07:54.038Z,27.40
2018-05-31T06:10:21.858Z,27.40
2018-05-31T06:12:49.628Z,27.50
2018-05-31T06:15:17.353Z,27.50
2018-05-31T06:17:45.113Z,27.50
2018-05-31T06:20:12.824Z,27.50
2018-05-31T06:22:41.283Z,27.50
2018-05-31T06:25:09.008Z,27.60
2018-05-31T06:27:36.803Z,27.60
2018-05-31T06:30:04.515Z,27.70
2018-05-31T06:32:32.975Z,27.90
2018-05-31T06:35:00.723Z,27.80
2018-05-31T06:37:28.450Z,27.60
2018-05-31T06:39:56.120Z,27.50
2018-05-31T06:42:23.813Z,27.20
2018-05-31T06:44:51.573Z,27.30
2018-05-31T06:47:19.269Z,27.00
2018-05-31T06:49:46.995Z,27.00
2018-05-31T06:52:14.727Z,26.90
2018-05-31T06:54:43.247Z,26.80
2018-05-31T06:57:10.970Z,26.80
2018-05-31T06:59:38.708Z,26.70
2018-05-31T07:02:06.449Z,26.60
2018-05-31T07:04:34.240Z,26.40
2018-05-31T07:07:02.003Z,26.10
2018-05-31T07:09:29.720Z,25.90
2018-05-31T07:11:58.233Z,25.20
2018-05-31T07:14:26.025Z,25.20
2018-05-31T07:16:53.716Z,25.00
2018-05-31T07:19:22.209Z,25.10
2018-05-31T07:21:49.994Z,25.10
2018-05-31T07:24:17.824Z,25.00
2018-05-31T07:26:45.516Z,24.90
2018-05-31T07:29:13.252Z,24.90
2018-05-31T07:31:41.051Z,24.90
2018-05-31T07:34:08.760Z,25.00
2018-05-31T07:36:36.459Z,24.90
2018-05-31T07:39:04.170Z,25.00
2018-05-31T07:41:31.870Z,25.00
2018-05-31T07:43:59.574Z,25.20
2018-05-31T07:46:27.268Z,25.40
2018-05-31T07:48:55.011Z,25.70
2018-05-31T07:51:22.745Z,26.00
2018-05-31T07:53:51.279Z,26.50
2018-05-31T07:56:18.972Z,26.50
2018-05-31T07:58:47.451Z,27.20
2018-05-31T08:01:16.022Z,27.50
2018-05-31T08:03:43.805Z,27.50
2018-05-31T08:06:11.504Z,27.90
2018-05-31T08:08:39.192Z,28.30
2018-05-31T08:11:06.904Z,28.70
2018-05-31T08:13:34.610Z,28.90
2018-05-31T08:16:02.514Z,29.10
2018-05-31T08:18:30.208Z,29.30
2018-05-31T08:20:57.917Z,29.30
2018-05-31T08:23:25.706Z,29.30
2018-05-31T08:25:53.706Z,29.30
2018-05-31T08:28:21.392Z,29.50
2018-05-31T08:30:49.124Z,29.80
2018-05-31T08:33:16.909Z,30.10
2018-05-31T08:35:44.663Z,29.80
2018-05-31T08:38:12.371Z,29.50
2018-05-31T08:40:40.868Z,29.20
2018-05-31T08:43:09.352Z,29.00
2018-05-31T08:45:37.879Z,28.80
2018-05-31T08:48:05.614Z,28.70
2018-05-31T08:50:34.191Z,28.50
2018-05-31T08:53:02.013Z,28.50
2018-05-31T08:55:29.804Z,28.20
2018-05-31T08:57:57.534Z,27.90
2018-05-31T09:00:25.302Z,27.70
2018-05-31T09:02:53.151Z,27.60
2018-05-31T09:05:21.698Z,27.30
2018-05-31T09:07:50.967Z,27.20
2018-05-31T09:10:18.804Z,27.20
2018-05-31T09:12:47.329Z,27.40
2018-05-31T09:15:15.149Z,27.30
2018-05-31T09:17:42.886Z,27.60
2018-05-31T09:20:10.748Z,28.00
2018-05-31T09:22:38.485Z,28.30
2018-05-31T09:25:06.285Z,28.70
2018-05-31T09:27:33.996Z,29.00
2018-05-31T09:30:02.506Z,29.80
2018-05-31T09:32:30.984Z,30.20
2018-05-31T09:35:00.180Z,30.50
2018-05-31T09:37:27.903Z,30.50
2018-05-31T09:39:55.608Z,30.80
2018-05-31T09:42:23.305Z,31.00
2018-05-31T09:44:51.123Z,31.20
2018-05-31T09:47:18.851Z,31.40
2018-05-31T09:49:46.729Z,31.60
2018-05-31T09:52:14.492Z,31.90
2018-05-31T09:54:42.670Z,31.90
2018-05-31T09:57:10.483Z,31.90
2018-05-31T09:59:38.347Z,32.00
2018-05-31T10:02:06.231Z,32.10
2018-05-31T10:04:34.901Z,32.50
2018-05-31T10:07:02.673Z,32.50
2018-05-31T10:09:30.393Z,32.70
2018-05-31T10:11:58.861Z,33.20
2018-05-31T10:14:26.828Z,33.10
2018-05-31T10:16:54.525Z,33.50
2018-05-31T10:19:23.070Z,34.00
2018-05-31T10:21:50.838Z,34.00
2018-05-31T10:24:18.528Z,34.30
2018-05-31T10:26:47.084Z,35.20
2018-05-31T10:29:14.813Z,35.10
2018-05-31T10:31:42.522Z,35.50
2018-05-31T10:34:10.278Z,35.90
2018-05-31T10:36:38.066Z,36.30
2018-05-31T10:39:05.764Z,36.60
2018-05-31T10:41:33.562Z,37.10
2018-05-31T10:44:01.270Z,37.40
2018-05-31T10:46:29.598Z,37.70
2018-05-31T10:48:57.285Z,38.10
2018-05-31T10:51:24.984Z,38.40
2018-05-31T10:53:54.261Z,38.90
2018-05-31T10:56:22.055Z,38.90
2018-05-31T10:58:49.823Z,39.10
2018-05-31T11:01:17.680Z,39.50
2018-05-31T11:03:45.405Z,39.80
2018-05-31T11:06:13.234Z,40.00
2018-05-31T11:08:40.983Z,40.20
2018-05-31T11:11:08.667Z,40.30
2018-05-31T11:13:36.369Z,40.40
2018-05-31T11:16:04.888Z,40.60
2018-05-31T11:18:32.631Z,40.50
2018-05-31T11:21:00.355Z,40.50
2018-05-31T11:23:28.428Z,40.20
2018-05-31T11:25:56.156Z,40.20
2018-05-31T11:28:23.969Z,40.20
2018-05-31T11:30:51.777Z,40.30
2018-05-31T11:33:19.545Z,40.40
2018-05-31T11:35:48.151Z,39.90
2018-05-31T11:38:15.833Z,39.90
2018-05-31T11:40:43.843Z,39.80
2018-05-31T11:43:11.525Z,39.30
2018-05-31T11:45:39.387Z,38.60
2018-05-31T11:48:07.084Z,38.00
2018-05-31T11:50:35.734Z,37.20
2018-05-31T11:53:04.501Z,36.50
2018-05-31T11:55:32.287Z,36.50
2018-05-31T11:58:00.272Z,36.10
2018-05-31T12:00:29.633Z,34.80
2018-05-31T12:02:59.053Z,34.70
2018-05-31T12:05:26.744Z,34.70
2018-05-31T12:07:54.517Z,34.60
2018-05-31T12:10:22.220Z,34.40
2018-05-31T12:12:51.644Z,34.00
2018-05-31T12:15:19.982Z,34.00
2018-05-31T12:17:47.719Z,33.90
2018-05-31T12:20:15.508Z,33.70
2018-05-31T12:22:43.297Z,33.60
2018-05-31T12:25:11.364Z,33.40
2018-05-31T12:27:39.240Z,33.30
2018-05-31T12:30:07.051Z,33.10
2018-05-31T12:32:34.831Z,32.90
2018-05-31T12:35:02.580Z,32.60
2018-05-31T12:37:31.108Z,32.40
2018-05-31T12:39:58.955Z,32.40
2018-05-31T12:42:26.981Z,32.10
2018-05-31T12:44:54.915Z,31.90
2018-05-31T12:47:22.669Z,31.80
2018-05-31T12:49:50.706Z,31.80
2018-05-31T12:52:18.516Z,32.20
2018-05-31T12:54:46.512Z,32.70
2018-05-31T12:57:14.315Z,33.20
2018-05-31T12:59:42.286Z,33.60
2018-05-31T13:02:10.361Z,34.00
2018-05-31T13:04:38.336Z,34.30
2018-05-31T13:07:06.393Z,34.30
2018-05-31T13:09:34.393Z,34.30
2018-05-31T13:12:02.427Z,34.10
2018-05-31T13:14:30.524Z,33.90
2018-05-31T13:16:59.228Z,33.60
2018-05-31T13:19:27.089Z,33.40
2018-05-31T13:21:55.892Z,32.90
2018-05-31T13:24:23.867Z,32.40
2018-05-31T13:26:51.746Z,31.50
2018-05-31T13:29:20.456Z,30.40
2018-05-31T13:31:48.494Z,30.30
2018-05-31T13:34:16.264Z,29.60
2018-05-31T13:36:44.351Z,29.10
2018-05-31T13:39:12.205Z,28.90
2018-05-31T13:41:41.017Z,28.30
2018-05-31T13:44:10.323Z,28.20
2018-05-31T13:46:39.526Z,28.00
2018-05-31T13:49:07.502Z,27.70
2018-05-31T13:51:35.785Z,27.60
2018-05-31T13:54:03.822Z,27.50
2018-05-31T13:56:31.936Z,27.40
2018-05-31T13:58:59.772Z,27.50
2018-05-31T14:01:27.620Z,27.60
2018-05-31T14:03:55.429Z,27.70
2018-05-31T14:06:23.421Z,27.60
2018-05-31T14:08:52.114Z,27.40
2018-05-31T14:11:19.982Z,27.40
2018-05-31T14:13:47.778Z,27.40
2018-05-31T14:16:15.931Z,27.50
2018-05-31T14:18:43.850Z,27.50
2018-05-31T14:21:11.829Z,27.60
2018-05-31T14:23:39.720Z,27.60
2018-05-31T14:26:07.831Z,27.70
2018-05-31T14:28:35.735Z,27.80
2018-05-31T14:31:03.746Z,27.80
2018-05-31T14:33:31.597Z,27.80
2018-05-31T14:35:59.635Z,27.80
2018-05-31T14:38:27.699Z,27.90
2018-05-31T14:40:56.492Z,28.10
2018-05-31T14:43:24.459Z,28.00
2018-05-31T14:45:52.382Z,28.10
2018-05-31T14:48:20.521Z,28.20
2018-05-31T14:50:48.602Z,28.20
2018-05-31T14:53:17.535Z,28.40
2018-05-31T14:55:45.511Z,28.30
2018-05-31T14:58:13.532Z,28.50
2018-05-31T15:00:41.593Z,28.50
2018-05-31T15:03:09.633Z,28.60
2018-05-31T15:05:37.522Z,28.70
2018-05-31T15:08:05.495Z,28.70
2018-05-31T15:10:33.365Z,28.70
2018-05-31T15:13:01.474Z,28.80
2018-05-31T15:15:30.267Z,28.60
2018-05-31T15:17:58.206Z,28.60
2018-05-31T15:20:26.219Z,28.40
2018-05-31T15:22:54.950Z,28.20
2018-05-31T15:25:22.926Z,28.20
2018-05-31T15:27:51.672Z,27.90
2018-05-31T15:30:19.553Z,27.90
2018-05-31T15:32:48.748Z,27.60
2018-05-31T15:35:16.721Z,27.60
2018-05-31T15:37:45.516Z,27.40
2018-05-31T15:40:14.123Z,27.20
2018-05-31T15:42:42.140Z,27.20
2018-05-31T15:45:10.154Z,27.20
2018-05-31T15:47:38.126Z,27.20
2018-05-31T15:50:06.933Z,26.90
2018-05-31T15:52:35.489Z,26.80
2018-05-31T15:55:03.312Z,26.80
2018-05-31T15:57:31.299Z,26.70
2018-05-31T15:59:59.099Z,26.70
2018-05-31T16:02:26.959Z,26.70
2018-05-31T16:04:54.965Z,26.70
2018-05-31T16:07:22.726Z,26.70
2018-05-31T16:09:50.414Z,26.70
2018-05-31T16:12:18.128Z,26.60
2018-05-31T16:14:45.924Z,26.60
2018-05-31T16:17:13.736Z,26.60
2018-05-31T16:19:41.393Z,26.60
2018-05-31T16:22:09.444Z,26.70
2018-05-31T16:24:37.141Z,26.70
2018-05-31T16:27:04.865Z,26.80
2018-05-31T16:29:32.564Z,26.80
2018-05-31T16:32:00.314Z,26.80
2018-05-31T16:34:28.093Z,26.90
2018-05-31T16:36:55.817Z,26.90
2018-05-31T16:39:23.508Z,26.90
2018-05-31T16:41:51.315Z,26.90
2018-05-31T16:44:19.069Z,27.00
2018-05-31T16:46:46.830Z,27.00
2018-05-31T16:49:14.595Z,27.00
2018-05-31T16:51:42.307Z,27.10
2018-05-31T16:54:10.771Z,27.00
2018-05-31T16:56:38.525Z,27.00
2018-05-31T16:59:06.225Z,26.90
2018-05-31T17:01:34.692Z,26.90
2018-05-31T17:04:02.448Z,26.90
2018-05-31T17:06:30.168Z,26.90
2018-05-31T17:08:58.632Z,27.00
2018-05-31T17:11:27.103Z,27.00
2018-05-31T17:13:54.848Z,27.00
2018-05-31T17:16:22.563Z,26.90
2018-05-31T17:18:51.031Z,26.70
2018-05-31T17:21:19.589Z,26.70
2018-05-31T17:23:47.281Z,26.70
2018-05-31T17:26:15.036Z,26.70
2018-05-31T17:28:42.735Z,26.50
2018-05-31T17:31:11.244Z,26.40
2018-05-31T17:33:38.945Z,26.30
2018-05-31T17:36:06.665Z,26.30
2018-05-31T17:38:35.205Z,26.20
2018-05-31T17:41:02.920Z,26.20
2018-05-31T17:43:31.377Z,26.30
2018-05-31T17:45:59.066Z,26.30
2018-05-31T17:48:27.602Z,26.30
2018-05-31T17:50:55.319Z,26.30
2018-05-31T17:53:23.807Z,26.30
2018-05-31T17:55:52.266Z,26.40
2018-05-31T17:58:20.011Z,26.40
2018-05-31T18:00:48.209Z,26.40
2018-05-31T18:03:17.192Z,26.40
2018-05-31T18:05:44.867Z,26.40
2018-05-31T18:08:12.583Z,26.50
2018-05-31T18:10:40.276Z,26.50
2018-05-31T18:13:07.981Z,26.50
2018-05-31T18:15:35.675Z,26.50
2018-05-31T18:18:04.205Z,26.60
2018-05-31T18:20:31.897Z,26.60
2018-05-31T18:22:59.607Z,26.60
2018-05-31T18:25:27.301Z,26.70
2018-05-31T18:27:55.062Z,26.70
2018-05-31T18:30:22.854Z,26.70
2018-05-31T18:32:50.566Z,26.80
2018-05-31T18:35:19.102Z,26.80
2018-05-31T18:37:46.884Z,26.80
2018-05-31T18:40:14.637Z,26.80
2018-05-31T18:42:42.417Z,26.70
2018-05-31T18:45:10.109Z,26.70
2018-05-31T18:47:37.818Z,26.70
2018-05-31T18:50:05.504Z,26.70
2018-05-31T18:52:33.235Z,26.60
2018-05-31T18:55:00.959Z,26.60
